Nyk Constellation — V7NP4 — position and weather

sailwx.info

Track history (hours):
 
Tides and Currents Weather Stations Pressure Air Temp Water Temp Dewpoint Dewpoint Depression Visibility Wind Speed Wind Dir Waves Ship Positions

Nyk Constellation

Last reported at 2016-Sep-29 00:30 UTC. Time now 2016-Sep-29 17:03 UTC.
Position N 30°31' W 116°53'.

Length 294 m; draft 11.1 m.

Type: Cargo ship. MMSI: 538002992.

Date/timePositionNaut miles runAvg speedWind from/ knotsBaromVisibWave heightAir tempDewpointWater temp
2016-Sep-29 00:30N 30°31' W 116°53'5318.0
2016-Sep-28 21:33N 31°20' W 117°14'3718.5
2016-Sep-28 19:33N 31°55' W 117°29'5518.3
2016-Sep-28 16:33N 32°47' W 117°51'1818.1
2016-Sep-28 15:33N 33°04' W 117°57'4113.6
2016-Sep-28 12:34N 33°42' W 118°15'3 0.9
2016-Sep-28 08:32N 33°45' W 118°16'0 0.0
2016-Sep-28 03:33N 33°45' W 118°16'0 0.0
2016-Sep-28 02:32N 33°45' W 118°16'0 0.0
2016-Sep-28 01:33N 33°45' W 118°16'0 0.0
2016-Sep-27 23:33N 33°45' W 118°16'0 0.0
2016-Sep-27 19:33N 33°45' W 118°16'0 0.0
2016-Sep-27 14:32N 33°45' W 118°16'0 0.0
2016-Sep-27 13:32N 33°45' W 118°16'13 4.0
2016-Sep-27 10:15N 33°40' W 118°30'16216.7
2016-Sep-27 00:33N 34°52' W 121°26'8020.0
2016-Sep-26 20:33N 36°00' W 122°17'2220.1
2016-Sep-26 19:28N 36°20' W 122°29'6717.1
2016-Sep-26 15:33N 37°26' W 122°44'2010.2
2016-Sep-26 13:33N 37°46' W 122°39'17 8.7
2016-Sep-26 11:34N 37°48' W 122°17'1 0.4
2016-Sep-26 08:32N 37°48' W 122°19'0 0.0
2016-Sep-26 02:32N 37°48' W 122°19'0 0.0
2016-Sep-26 01:29N 37°48' W 122°19'0 0.0
2016-Sep-26 00:32N 37°48' W 122°19'0 0.0
2016-Sep-25 21:32N 37°48' W 122°19'0 0.0
2016-Sep-25 17:29N 37°48' W 122°19'0 0.0
2016-Sep-25 16:32N 37°48' W 122°19'0 0.0
2016-Sep-25 15:32N 37°48' W 122°19'0 0.0
2016-Sep-25 14:32N 37°48' W 122°19'1 0.7
2016-Sep-25 12:34N 37°48' W 122°21'1212.3
2016-Sep-25 11:33N 37°46' W 122°36'8 8.0
2016-Sep-25 10:33N 37°46' W 122°46'10 9.6
2016-Sep-25 09:33N 37°51' W 122°57'19 9.6
2016-Sep-25 07:33N 38°02' W 123°16'4515.1
2016-Sep-25 04:33N 38°39' W 123°51'7117.7
2016-Sep-25 00:33N 39°41' W 124°34'24817.7
2016-Sep-24 10:33N 43°48' W 125°08'1817.6
2016-Sep-24 09:33N 44°06' W 125°09'10417.4
2016-Sep-24 03:34N 45°50' W 125°12'1717.3
2016-Sep-24 02:34N 46°07' W 125°13'1717.4
2016-Sep-24 01:33N 46°25' W 125°14'1717.5
2016-Sep-24 00:34N 46°42' W 125°15'8817.6
2016-Sep-23 19:33N 48°10' W 125°12'2713.7
2016-Sep-23 17:33N 48°31' W 124°45'1717.3
2016-Sep-23 16:33N 48°24' W 124°21'1717.2
2016-Sep-23 15:34N 48°18' W 123°57'2612.8
2016-Sep-23 13:33N 48°23' W 123°19'5313.3
2016-Sep-23 09:33N 49°16' W 123°21'10 3.2
2016-Sep-23 06:31N 49°17' W 123°06'0 0.0
2016-Sep-23 04:31N 49°17' W 123°06'0 0.0
2016-Sep-23 03:31N 49°17' W 123°06'0 0.0
2016-Sep-23 02:31N 49°17' W 123°06'0 0.0
2016-Sep-23 01:31N 49°17' W 123°06'0 0.0
2016-Sep-23 00:31N 49°17' W 123°06'0 0.2
2016-Sep-22 23:33N 49°17' W 123°06'24 8.0
2016-Sep-22 20:33N 48°54' W 123°04'79 9.9
2016-Sep-22 12:33N 47°38' W 122°27'23 2.8
2016-Sep-22 04:23N 47°16' W 122°24'0 0.0
2016-Sep-22 03:29N 47°16' W 122°24'0 0.0
2016-Sep-22 00:29N 47°16' W 122°24'0 0.0
2016-Sep-21 23:32N 47°16' W 122°24'0 0.0
2016-Sep-21 22:29N 47°16' W 122°24'0 0.0
2016-Sep-21 19:29N 47°16' W 122°24'0 0.0
2016-Sep-21 16:29N 47°16' W 122°24'26 3.8
2016-Sep-21 09:34N 47°42' W 122°27'1616.1
2016-Sep-21 08:34N 47°57' W 122°35'3812.6
2016-Sep-21 05:33N 48°11' W 123°27'2010.0
2016-Sep-21 03:33N 48°14' W 123°57'1212.5
2016-Sep-21 02:33N 48°19' W 124°14'  
Track history (hours):
 
Tides and Currents Weather Stations Pressure Air Temp Water Temp Dewpoint Dewpoint Depression Visibility Wind Speed Wind Dir Waves Ship Positions

Nyk Constellation

Last reported at 2016-Sep-29 00:30 UTC. Time now 2016-Sep-29 17:03 UTC.
Position N 30°31' W 116°53'.

Length 294 m; draft 11.1 m.

Type: Cargo ship. MMSI: 538002992.

Date/timePositionNaut miles runAvg speedWind from/ knotsBaromVisibWave heightAir tempDewpointWater temp
2016-Sep-29 00:30N 30°31' W 116°53'5318.0
2016-Sep-28 21:33N 31°20' W 117°14'3718.5
2016-Sep-28 19:33N 31°55' W 117°29'5518.3
2016-Sep-28 16:33N 32°47' W 117°51'1818.1
2016-Sep-28 15:33N 33°04' W 117°57'4113.6
2016-Sep-28 12:34N 33°42' W 118°15'3 0.9
2016-Sep-28 08:32N 33°45' W 118°16'0 0.0
2016-Sep-28 03:33N 33°45' W 118°16'0 0.0
2016-Sep-28 02:32N 33°45' W 118°16'0 0.0
2016-Sep-28 01:33N 33°45' W 118°16'0 0.0
2016-Sep-27 23:33N 33°45' W 118°16'0 0.0
2016-Sep-27 19:33N 33°45' W 118°16'0 0.0
2016-Sep-27 14:32N 33°45' W 118°16'0 0.0
2016-Sep-27 13:32N 33°45' W 118°16'13 4.0
2016-Sep-27 10:15N 33°40' W 118°30'16216.7
2016-Sep-27 00:33N 34°52' W 121°26'8020.0
2016-Sep-26 20:33N 36°00' W 122°17'2220.1
2016-Sep-26 19:28N 36°20' W 122°29'6717.1
2016-Sep-26 15:33N 37°26' W 122°44'2010.2
2016-Sep-26 13:33N 37°46' W 122°39'17 8.7
2016-Sep-26 11:34N 37°48' W 122°17'1 0.4
2016-Sep-26 08:32N 37°48' W 122°19'0 0.0
2016-Sep-26 02:32N 37°48' W 122°19'0 0.0
2016-Sep-26 01:29N 37°48' W 122°19'0 0.0
2016-Sep-26 00:32N 37°48' W 122°19'0 0.0
2016-Sep-25 21:32N 37°48' W 122°19'0 0.0
2016-Sep-25 17:29N 37°48' W 122°19'0 0.0
2016-Sep-25 16:32N 37°48' W 122°19'0 0.0
2016-Sep-25 15:32N 37°48' W 122°19'0 0.0
2016-Sep-25 14:32N 37°48' W 122°19'1 0.7
2016-Sep-25 12:34N 37°48' W 122°21'1212.3
2016-Sep-25 11:33N 37°46' W 122°36'8 8.0
2016-Sep-25 10:33N 37°46' W 122°46'10 9.6
2016-Sep-25 09:33N 37°51' W 122°57'19 9.6
2016-Sep-25 07:33N 38°02' W 123°16'4515.1
2016-Sep-25 04:33N 38°39' W 123°51'7117.7
2016-Sep-25 00:33N 39°41' W 124°34'24817.7
2016-Sep-24 10:33N 43°48' W 125°08'1817.6
2016-Sep-24 09:33N 44°06' W 125°09'10417.4
2016-Sep-24 03:34N 45°50' W 125°12'1717.3
2016-Sep-24 02:34N 46°07' W 125°13'1717.4
2016-Sep-24 01:33N 46°25' W 125°14'1717.5
2016-Sep-24 00:34N 46°42' W 125°15'8817.6
2016-Sep-23 19:33N 48°10' W 125°12'2713.7
2016-Sep-23 17:33N 48°31' W 124°45'1717.3
2016-Sep-23 16:33N 48°24' W 124°21'1717.2
2016-Sep-23 15:34N 48°18' W 123°57'2612.8
2016-Sep-23 13:33N 48°23' W 123°19'5313.3
2016-Sep-23 09:33N 49°16' W 123°21'10 3.2
2016-Sep-23 06:31N 49°17' W 123°06'0 0.0
2016-Sep-23 04:31N 49°17' W 123°06'0 0.0
2016-Sep-23 03:31N 49°17' W 123°06'0 0.0
2016-Sep-23 02:31N 49°17' W 123°06'0 0.0
2016-Sep-23 01:31N 49°17' W 123°06'0 0.0
2016-Sep-23 00:31N 49°17' W 123°06'0 0.2
2016-Sep-22 23:33N 49°17' W 123°06'24 8.0
2016-Sep-22 20:33N 48°54' W 123°04'79 9.9
2016-Sep-22 12:33N 47°38' W 122°27'23 2.8
2016-Sep-22 04:23N 47°16' W 122°24'0 0.0
2016-Sep-22 03:29N 47°16' W 122°24'0 0.0
2016-Sep-22 00:29N 47°16' W 122°24'0 0.0
2016-Sep-21 23:32N 47°16' W 122°24'0 0.0
2016-Sep-21 22:29N 47°16' W 122°24'0 0.0
2016-Sep-21 19:29N 47°16' W 122°24'0 0.0
2016-Sep-21 16:29N 47°16' W 122°24'26 3.8
2016-Sep-21 09:34N 47°42' W 122°27'1616.1
2016-Sep-21 08:34N 47°57' W 122°35'3812.6
2016-Sep-21 05:33N 48°11' W 123°27'2010.0
2016-Sep-21 03:33N 48°14' W 123°57'1212.5
2016-Sep-21 02:33N 48°19' W 124°14'  

Dump ship's entire track history